sensor_id;sensor_type;location;lat;lon;timestamp;temperature;humidity
38263;DHT22;24054;50.128;19.730;2023-02-08T00:01:59;21.10;43.90
38263;DHT22;24054;50.128;19.730;2023-02-08T00:04:26;21.10;43.90
38263;DHT22;24054;50.128;19.730;2023-02-08T00:06:53;21.10;43.90
38263;DHT22;24054;50.128;19.730;2023-02-08T00:09:20;21.10;43.90
38263;DHT22;24054;50.128;19.730;2023-02-08T00:11:48;21.10;43.90
38263;DHT22;24054;50.128;19.730;2023-02-08T00:14:15;21.00;43.90
38263;DHT22;24054;50.128;19.730;2023-02-08T00:16:42;21.00;43.90
38263;DHT22;24054;50.128;19.730;2023-02-08T00:19:09;21.00;43.90
38263;DHT22;24054;50.128;19.730;2023-02-08T00:21:36;21.00;43.90
38263;DHT22;24054;50.128;19.730;2023-02-08T00:24:03;21.00;44.00
38263;DHT22;24054;50.128;19.730;2023-02-08T00:26:31;21.00;43.90
38263;DHT22;24054;50.128;19.730;2023-02-08T00:28:59;21.00;43.90
38263;DHT22;24054;50.128;19.730;2023-02-08T00:31:26;21.00;43.90
38263;DHT22;24054;50.128;19.730;2023-02-08T00:33:53;21.00;43.80
38263;DHT22;24054;50.128;19.730;2023-02-08T00:36:20;20.90;43.80
38263;DHT22;24054;50.128;19.730;2023-02-08T00:38:47;20.90;43.80
38263;DHT22;24054;50.128;19.730;2023-02-08T00:41:14;21.00;44.10
38263;DHT22;24054;50.128;19.730;2023-02-08T00:43:41;20.90;43.70
38263;DHT22;24054;50.128;19.730;2023-02-08T00:46:09;20.90;43.80
38263;DHT22;24054;50.128;19.730;2023-02-08T00:48:37;20.90;43.70
38263;DHT22;24054;50.128;19.730;2023-02-08T00:51:05;20.90;43.70
38263;DHT22;24054;50.128;19.730;2023-02-08T00:53:35;20.90;43.70
38263;DHT22;24054;50.128;19.730;2023-02-08T00:56:02;20.90;43.60
38263;DHT22;24054;50.128;19.730;2023-02-08T00:58:29;20.80;43.50
38263;DHT22;24054;50.128;19.730;2023-02-08T01:00:56;20.80;43.50
38263;DHT22;24054;50.128;19.730;2023-02-08T01:03:25;20.80;43.50
38263;DHT22;24054;50.128;19.730;2023-02-08T01:05:52;20.80;43.50
38263;DHT22;24054;50.128;19.730;2023-02-08T01:08:19;20.80;43.50
38263;DHT22;24054;50.128;19.730;2023-02-08T01:10:47;20.80;43.50
38263;DHT22;24054;50.128;19.730;2023-02-08T01:13:14;20.80;43.50
38263;DHT22;24054;50.128;19.730;2023-02-08T01:15:41;20.80;43.50
38263;DHT22;24054;50.128;19.730;2023-02-08T01:18:08;20.80;43.50
38263;DHT22;24054;50.128;19.730;2023-02-08T01:20:36;20.80;43.60
38263;DHT22;24054;50.128;19.730;2023-02-08T01:23:03;20.80;43.50
38263;DHT22;24054;50.128;19.730;2023-02-08T01:25:30;20.70;43.50
38263;DHT22;24054;50.128;19.730;2023-02-08T01:27:57;20.70;43.50
38263;DHT22;24054;50.128;19.730;2023-02-08T01:30:24;20.70;43.40
38263;DHT22;24054;50.128;19.730;2023-02-08T01:32:51;20.70;43.40
38263;DHT22;24054;50.128;19.730;2023-02-08T01:35:18;20.70;43.40
38263;DHT22;24054;50.128;19.730;2023-02-08T01:37:47;20.70;43.40
38263;DHT22;24054;50.128;19.730;2023-02-08T01:40:14;20.70;43.40
38263;DHT22;24054;50.128;19.730;2023-02-08T01:42:41;20.70;43.30
38263;DHT22;24054;50.128;19.730;2023-02-08T01:45:27;20.70;43.30
38263;DHT22;24054;50.128;19.730;2023-02-08T01:48:02;20.60;43.30
38263;DHT22;24054;50.128;19.730;2023-02-08T01:50:35;20.70;43.30
38263;DHT22;24054;50.128;19.730;2023-02-08T01:53:06;20.60;43.20
38263;DHT22;24054;50.128;19.730;2023-02-08T01:55:34;20.60;43.20
38263;DHT22;24054;50.128;19.730;2023-02-08T01:58:04;20.60;43.20
38263;DHT22;24054;50.128;19.730;2023-02-08T02:00:32;20.60;43.20
38263;DHT22;24054;50.128;19.730;2023-02-08T02:02:59;20.60;43.20
38263;DHT22;24054;50.128;19.730;2023-02-08T02:05:32;20.50;43.10
38263;DHT22;24054;50.128;19.730;2023-02-08T02:08:00;20.60;43.20
38263;DHT22;24054;50.128;19.730;2023-02-08T02:10:31;20.50;43.10
38263;DHT22;24054;50.128;19.730;2023-02-08T02:13:03;20.50;43.10
38263;DHT22;24054;50.128;19.730;2023-02-08T02:15:31;20.50;43.10
38263;DHT22;24054;50.128;19.730;2023-02-08T02:17:58;20.50;43.00
38263;DHT22;24054;50.128;19.730;2023-02-08T02:20:32;20.50;43.00
38263;DHT22;24054;50.128;19.730;2023-02-08T02:29:47;20.50;43.00
38263;DHT22;24054;50.128;19.730;2023-02-08T02:32:35;20.50;43.00
38263;DHT22;24054;50.128;19.730;2023-02-08T02:35:09;20.50;43.00
38263;DHT22;24054;50.128;19.730;2023-02-08T02:37:49;20.40;43.00
38263;DHT22;24054;50.128;19.730;2023-02-08T02:40:24;20.50;43.00
38263;DHT22;24054;50.128;19.730;2023-02-08T02:43:00;20.40;43.00
38263;DHT22;24054;50.128;19.730;2023-02-08T02:45:54;20.40;42.90
38263;DHT22;24054;50.128;19.730;2023-02-08T02:48:29;20.40;42.90
38263;DHT22;24054;50.128;19.730;2023-02-08T02:51:00;20.40;42.90
38263;DHT22;24054;50.128;19.730;2023-02-08T02:53:32;20.40;42.90
38263;DHT22;24054;50.128;19.730;2023-02-08T02:56:03;20.40;42.90
38263;DHT22;24054;50.128;19.730;2023-02-08T02:58:33;20.40;42.90
38263;DHT22;24054;50.128;19.730;2023-02-08T03:01:03;20.40;42.80
38263;DHT22;24054;50.128;19.730;2023-02-08T03:03:32;20.40;42.80
38263;DHT22;24054;50.128;19.730;2023-02-08T03:06:02;20.40;42.80
38263;DHT22;24054;50.128;19.730;2023-02-08T03:11:25;20.30;42.80
38263;DHT22;24054;50.128;19.730;2023-02-08T03:14:02;20.30;42.70
38263;DHT22;24054;50.128;19.730;2023-02-08T03:16:51;20.30;42.70
38263;DHT22;24054;50.128;19.730;2023-02-08T03:19:32;20.30;42.70
38263;DHT22;24054;50.128;19.730;2023-02-08T03:22:05;20.30;42.70
38263;DHT22;24054;50.128;19.730;2023-02-08T03:24:47;20.30;42.70
38263;DHT22;24054;50.128;19.730;2023-02-08T03:27:21;20.30;42.70
38263;DHT22;24054;50.128;19.730;2023-02-08T03:29:57;20.30;42.70
38263;DHT22;24054;50.128;19.730;2023-02-08T03:32:32;20.20;42.70
38263;DHT22;24054;50.128;19.730;2023-02-08T03:35:05;20.20;42.70
38263;DHT22;24054;50.128;19.730;2023-02-08T03:37:37;20.20;42.70
38263;DHT22;24054;50.128;19.730;2023-02-08T03:40:12;20.20;42.70
38263;DHT22;24054;50.128;19.730;2023-02-08T03:42:40;20.20;42.80
38263;DHT22;24054;50.128;19.730;2023-02-08T03:45:12;20.20;42.70
38263;DHT22;24054;50.128;19.730;2023-02-08T03:47:43;20.20;42.70
38263;DHT22;24054;50.128;19.730;2023-02-08T03:50:15;20.20;42.70
38263;DHT22;24054;50.128;19.730;2023-02-08T03:52:45;20.20;42.70
38263;DHT22;24054;50.128;19.730;2023-02-08T03:55:14;20.20;42.60
38263;DHT22;24054;50.128;19.730;2023-02-08T03:57:47;20.20;42.60
38263;DHT22;24054;50.128;19.730;2023-02-08T04:00:16;20.20;42.60
38263;DHT22;24054;50.128;19.730;2023-02-08T04:02:48;20.10;42.60
38263;DHT22;24054;50.128;19.730;2023-02-08T04:05:19;20.20;42.60
38263;DHT22;24054;50.128;19.730;2023-02-08T04:07:47;20.20;42.60
38263;DHT22;24054;50.128;19.730;2023-02-08T04:10:14;20.10;42.60
38263;DHT22;24054;50.128;19.730;2023-02-08T04:12:42;20.20;42.60
38263;DHT22;24054;50.128;19.730;2023-02-08T04:15:10;20.10;42.50
38263;DHT22;24054;50.128;19.730;2023-02-08T04:17:37;20.10;42.50
38263;DHT22;24054;50.128;19.730;2023-02-08T04:20:04;20.10;42.50
38263;DHT22;24054;50.128;19.730;2023-02-08T04:22:33;20.10;42.60
38263;DHT22;24054;50.128;19.730;2023-02-08T04:25:00;20.10;42.50
38263;DHT22;24054;50.128;19.730;2023-02-08T04:27:27;20.10;42.50
38263;DHT22;24054;50.128;19.730;2023-02-08T04:29:54;20.10;42.50
38263;DHT22;24054;50.128;19.730;2023-02-08T04:32:21;20.10;42.50
38263;DHT22;24054;50.128;19.730;2023-02-08T04:34:48;20.10;42.50
38263;DHT22;24054;50.128;19.730;2023-02-08T04:37:14;20.10;42.50
38263;DHT22;24054;50.128;19.730;2023-02-08T04:39:43;20.10;42.50
38263;DHT22;24054;50.128;19.730;2023-02-08T04:42:10;20.10;42.50
38263;DHT22;24054;50.128;19.730;2023-02-08T04:44:37;20.00;42.40
38263;DHT22;24054;50.128;19.730;2023-02-08T04:47:04;20.00;42.40
38263;DHT22;24054;50.128;19.730;2023-02-08T04:49:31;20.00;42.40
38263;DHT22;24054;50.128;19.730;2023-02-08T04:51:58;20.00;42.40
38263;DHT22;24054;50.128;19.730;2023-02-08T04:54:25;20.00;42.40
38263;DHT22;24054;50.128;19.730;2023-02-08T04:56:53;20.00;42.40
38263;DHT22;24054;50.128;19.730;2023-02-08T04:59:20;20.00;42.40
38263;DHT22;24054;50.128;19.730;2023-02-08T05:01:47;20.00;42.40
38263;DHT22;24054;50.128;19.730;2023-02-08T05:04:14;19.90;42.30
38263;DHT22;24054;50.128;19.730;2023-02-08T05:06:41;19.90;42.30
38263;DHT22;24054;50.128;19.730;2023-02-08T05:09:08;19.90;42.30
38263;DHT22;24054;50.128;19.730;2023-02-08T05:11:36;20.00;42.40
38263;DHT22;24054;50.128;19.730;2023-02-08T05:14:04;19.90;42.30
38263;DHT22;24054;50.128;19.730;2023-02-08T05:16:31;19.90;42.30
38263;DHT22;24054;50.128;19.730;2023-02-08T05:18:58;19.90;42.30
38263;DHT22;24054;50.128;19.730;2023-02-08T05:21:25;19.90;42.30
38263;DHT22;24054;50.128;19.730;2023-02-08T05:23:52;19.90;42.30
38263;DHT22;24054;50.128;19.730;2023-02-08T05:26:19;19.90;42.30
38263;DHT22;24054;50.128;19.730;2023-02-08T05:28:46;19.90;42.30
38263;DHT22;24054;50.128;19.730;2023-02-08T05:31:17;19.90;42.30
38263;DHT22;24054;50.128;19.730;2023-02-08T05:33:47;19.90;42.30
38263;DHT22;24054;50.128;19.730;2023-02-08T05:36:14;19.90;42.30
38263;DHT22;24054;50.128;19.730;2023-02-08T05:38:41;19.90;42.30
38263;DHT22;24054;50.128;19.730;2023-02-08T05:41:08;19.90;42.30
38263;DHT22;24054;50.128;19.730;2023-02-08T05:43:36;19.90;42.30
38263;DHT22;24054;50.128;19.730;2023-02-08T05:46:03;19.90;42.30
38263;DHT22;24054;50.128;19.730;2023-02-08T05:48:31;19.80;42.30
38263;DHT22;24054;50.128;19.730;2023-02-08T05:50:58;19.80;42.30
38263;DHT22;24054;50.128;19.730;2023-02-08T05:53:26;19.80;42.30
38263;DHT22;24054;50.128;19.730;2023-02-08T05:55:53;19.80;42.30
38263;DHT22;24054;50.128;19.730;2023-02-08T05:58:20;19.80;42.30
38263;DHT22;24054;50.128;19.730;2023-02-08T06:00:46;19.80;42.30
38263;DHT22;24054;50.128;19.730;2023-02-08T06:03:13;19.80;42.30
38263;DHT22;24054;50.128;19.730;2023-02-08T06:05:42;19.80;42.20
38263;DHT22;24054;50.128;19.730;2023-02-08T06:08:09;19.80;42.30
38263;DHT22;24054;50.128;19.730;2023-02-08T06:10:36;19.80;42.30
38263;DHT22;24054;50.128;19.730;2023-02-08T06:13:03;19.80;43.10
38263;DHT22;24054;50.128;19.730;2023-02-08T06:15:30;19.80;42.50
38263;DHT22;24054;50.128;19.730;2023-02-08T06:17:57;19.80;42.80
38263;DHT22;24054;50.128;19.730;2023-02-08T06:20:24;19.80;42.90
38263;DHT22;24054;50.128;19.730;2023-02-08T06:22:54;19.90;43.00
38263;DHT22;24054;50.128;19.730;2023-02-08T06:25:21;20.00;43.10
38263;DHT22;24054;50.128;19.730;2023-02-08T06:27:48;20.00;43.10
38263;DHT22;24054;50.128;19.730;2023-02-08T06:30:15;20.10;43.10
38263;DHT22;24054;50.128;19.730;2023-02-08T06:32:42;20.20;43.10
38263;DHT22;24054;50.128;19.730;2023-02-08T06:35:09;20.20;43.00
38263;DHT22;24054;50.128;19.730;2023-02-08T06:37:36;20.30;43.00
38263;DHT22;24054;50.128;19.730;2023-02-08T06:40:06;20.40;43.00
38263;DHT22;24054;50.128;19.730;2023-02-08T06:42:33;20.50;42.90
38263;DHT22;24054;50.128;19.730;2023-02-08T06:45:00;20.50;42.90
38263;DHT22;24054;50.128;19.730;2023-02-08T06:47:27;20.60;42.80
38263;DHT22;24054;50.128;19.730;2023-02-08T06:49:54;20.70;42.90
38263;DHT22;24054;50.128;19.730;2023-02-08T06:52:21;20.80;42.80
38263;DHT22;24054;50.128;19.730;2023-02-08T06:54:48;20.80;42.80
38263;DHT22;24054;50.128;19.730;2023-02-08T06:57:17;20.90;42.80
38263;DHT22;24054;50.128;19.730;2023-02-08T06:59:44;20.90;42.70
38263;DHT22;24054;50.128;19.730;2023-02-08T07:02:13;21.00;42.70
38263;DHT22;24054;50.128;19.730;2023-02-08T07:04:41;21.00;42.60
38263;DHT22;24054;50.128;19.730;2023-02-08T07:07:08;21.10;42.60
38263;DHT22;24054;50.128;19.730;2023-02-08T07:09:35;21.20;42.60
38263;DHT22;24054;50.128;19.730;2023-02-08T07:12:03;21.20;42.60
38263;DHT22;24054;50.128;19.730;2023-02-08T07:14:32;21.30;42.60
38263;DHT22;24054;50.128;19.730;2023-02-08T07:16:59;21.30;42.70
38263;DHT22;24054;50.128;19.730;2023-02-08T07:19:26;21.40;43.20
38263;DHT22;24054;50.128;19.730;2023-02-08T07:21:56;21.40;43.50
38263;DHT22;24054;50.128;19.730;2023-02-08T07:24:27;21.40;43.90
38263;DHT22;24054;50.128;19.730;2023-02-08T07:26:54;21.50;44.70
38263;DHT22;24054;50.128;19.730;2023-02-08T07:29:21;21.60;45.60
38263;DHT22;24054;50.128;19.730;2023-02-08T07:31:49;21.60;45.00
38263;DHT22;24054;50.128;19.730;2023-02-08T07:34:16;21.60;45.30
38263;DHT22;24054;50.128;19.730;2023-02-08T07:36:46;21.70;45.70
38263;DHT22;24054;50.128;19.730;2023-02-08T07:39:15;21.70;45.50
38263;DHT22;24054;50.128;19.730;2023-02-08T07:41:42;21.80;46.10
38263;DHT22;24054;50.128;19.730;2023-02-08T07:44:09;21.80;45.60
38263;DHT22;24054;50.128;19.730;2023-02-08T07:46:36;21.80;45.60
38263;DHT22;24054;50.128;19.730;2023-02-08T07:49:04;21.80;45.80
38263;DHT22;24054;50.128;19.730;2023-02-08T07:51:35;21.80;45.80
38263;DHT22;24054;50.128;19.730;2023-02-08T07:54:02;21.90;45.70
38263;DHT22;24054;50.128;19.730;2023-02-08T07:56:29;21.90;45.60
38263;DHT22;24054;50.128;19.730;2023-02-08T07:58:56;21.90;45.60
38263;DHT22;24054;50.128;19.730;2023-02-08T08:01:23;21.90;45.50
38263;DHT22;24054;50.128;19.730;2023-02-08T08:03:50;22.00;45.50
38263;DHT22;24054;50.128;19.730;2023-02-08T08:06:19;22.00;45.40
38263;DHT22;24054;50.128;19.730;2023-02-08T08:08:47;22.00;45.20
38263;DHT22;24054;50.128;19.730;2023-02-08T08:11:14;22.00;45.10
38263;DHT22;24054;50.128;19.730;2023-02-08T08:13:42;22.10;44.90
38263;DHT22;24054;50.128;19.730;2023-02-08T08:16:09;22.20;44.80
38263;DHT22;24054;50.128;19.730;2023-02-08T08:18:36;22.20;44.60
38263;DHT22;24054;50.128;19.730;2023-02-08T08:21:03;22.20;44.40
38263;DHT22;24054;50.128;19.730;2023-02-08T08:23:32;22.30;44.30
38263;DHT22;24054;50.128;19.730;2023-02-08T08:26:05;22.30;44.10
38263;DHT22;24054;50.128;19.730;2023-02-08T08:28:32;22.30;43.90
38263;DHT22;24054;50.128;19.730;2023-02-08T08:30:59;22.40;43.80
38263;DHT22;24054;50.128;19.730;2023-02-08T08:33:26;22.40;43.60
38263;DHT22;24054;50.128;19.730;2023-02-08T08:35:53;22.50;43.50
38263;DHT22;24054;50.128;19.730;2023-02-08T08:38:20;22.50;43.30
38263;DHT22;24054;50.128;19.730;2023-02-08T08:40:49;22.50;43.20
38263;DHT22;24054;50.128;19.730;2023-02-08T08:43:16;22.50;43.00
38263;DHT22;24054;50.128;19.730;2023-02-08T08:45:43;22.60;42.90
38263;DHT22;24054;50.128;19.730;2023-02-08T08:48:11;22.60;42.70
38263;DHT22;24054;50.128;19.730;2023-02-08T08:50:38;22.60;42.60
38263;DHT22;24054;50.128;19.730;2023-02-08T08:53:07;22.70;42.50
38263;DHT22;24054;50.128;19.730;2023-02-08T08:55:34;22.70;42.30
38263;DHT22;24054;50.128;19.730;2023-02-08T08:58:03;22.70;42.20
38263;DHT22;24054;50.128;19.730;2023-02-08T09:00:30;22.70;42.40
38263;DHT22;24054;50.128;19.730;2023-02-08T09:02:57;22.80;42.60
38263;DHT22;24054;50.128;19.730;2023-02-08T09:05:24;22.80;42.50
38263;DHT22;24054;50.128;19.730;2023-02-08T09:07:51;22.70;42.60
38263;DHT22;24054;50.128;19.730;2023-02-08T09:10:18;22.70;42.60
38263;DHT22;24054;50.128;19.730;2023-02-08T09:12:46;22.80;42.70
38263;DHT22;24054;50.128;19.730;2023-02-08T09:15:15;22.70;42.80
38263;DHT22;24054;50.128;19.730;2023-02-08T09:17:41;22.70;42.80
38263;DHT22;24054;50.128;19.730;2023-02-08T09:20:09;22.70;42.90
38263;DHT22;24054;50.128;19.730;2023-02-08T09:22:36;22.70;43.00
38263;DHT22;24054;50.128;19.730;2023-02-08T09:25:04;22.70;43.00
38263;DHT22;24054;50.128;19.730;2023-02-08T09:27:32;22.70;43.10
38263;DHT22;24054;50.128;19.730;2023-02-08T09:30:00;22.70;43.20
38263;DHT22;24054;50.128;19.730;2023-02-08T09:32:31;22.70;43.20
38263;DHT22;24054;50.128;19.730;2023-02-08T09:34:59;22.70;43.30
38263;DHT22;24054;50.128;19.730;2023-02-08T09:37:28;22.80;43.40
38263;DHT22;24054;50.128;19.730;2023-02-08T09:39:55;22.80;43.40
38263;DHT22;24054;50.128;19.730;2023-02-08T09:42:34;22.70;43.50
38263;DHT22;24054;50.128;19.730;2023-02-08T09:45:26;22.70;43.60
38263;DHT22;24054;50.128;19.730;2023-02-08T09:48:02;22.70;43.70
38263;DHT22;24054;50.128;19.730;2023-02-08T09:50:35;22.70;43.80
38263;DHT22;24054;50.128;19.730;2023-02-08T09:53:09;22.70;43.90
38263;DHT22;24054;50.128;19.730;2023-02-08T09:55:41;22.60;44.00
38263;DHT22;24054;50.128;19.730;2023-02-08T09:58:18;22.70;44.00
38263;DHT22;24054;50.128;19.730;2023-02-08T10:00:47;22.70;44.10
38263;DHT22;24054;50.128;19.730;2023-02-08T10:03:33;22.60;44.10
38263;DHT22;24054;50.128;19.730;2023-02-08T10:06:02;22.60;44.20
38263;DHT22;24054;50.128;19.730;2023-02-08T10:08:30;22.60;44.50
38263;DHT22;24054;50.128;19.730;2023-02-08T10:11:08;22.50;44.30
38263;DHT22;24054;50.128;19.730;2023-02-08T10:13:59;22.50;44.50
38263;DHT22;24054;50.128;19.730;2023-02-08T10:16:42;22.50;44.70
38263;DHT22;24054;50.128;19.730;2023-02-08T10:19:26;22.50;44.80
38263;DHT22;24054;50.128;19.730;2023-02-08T10:22:08;22.50;45.00
38263;DHT22;24054;50.128;19.730;2023-02-08T10:25:11;22.40;44.90
38263;DHT22;24054;50.128;19.730;2023-02-08T10:27:51;22.40;44.80
38263;DHT22;24054;50.128;19.730;2023-02-08T10:30:31;22.40;44.90
38263;DHT22;24054;50.128;19.730;2023-02-08T10:33:01;22.40;44.90
38263;DHT22;24054;50.128;19.730;2023-02-08T10:35:31;22.40;45.00
38263;DHT22;24054;50.128;19.730;2023-02-08T10:38:17;22.40;44.80
38263;DHT22;24054;50.128;19.730;2023-02-08T10:40:49;22.30;44.70
38263;DHT22;24054;50.128;19.730;2023-02-08T10:43:23;22.30;45.10
38263;DHT22;24054;50.128;19.730;2023-02-08T10:45:55;22.30;44.30
38263;DHT22;24054;50.128;19.730;2023-02-08T10:48:33;22.30;44.10
38263;DHT22;24054;50.128;19.730;2023-02-08T10:51:04;22.30;44.10
38263;DHT22;24054;50.128;19.730;2023-02-08T10:53:31;22.30;44.10
38263;DHT22;24054;50.128;19.730;2023-02-08T10:56:02;22.30;44.20
38263;DHT22;24054;50.128;19.730;2023-02-08T10:58:30;22.40;44.80
38263;DHT22;24054;50.128;19.730;2023-02-08T11:00:58;22.40;44.20
38263;DHT22;24054;50.128;19.730;2023-02-08T11:03:28;22.40;44.20
38263;DHT22;24054;50.128;19.730;2023-02-08T11:05:55;22.50;44.20
38263;DHT22;24054;50.128;19.730;2023-02-08T11:08:25;22.50;44.20
38263;DHT22;24054;50.128;19.730;2023-02-08T11:10:58;22.60;44.20
38263;DHT22;24054;50.128;19.730;2023-02-08T11:13:30;22.70;44.20
38263;DHT22;24054;50.128;19.730;2023-02-08T11:15:59;22.80;44.10
38263;DHT22;24054;50.128;19.730;2023-02-08T11:18:30;23.00;44.00
38263;DHT22;24054;50.128;19.730;2023-02-08T11:20:59;23.10;43.90
38263;DHT22;24054;50.128;19.730;2023-02-08T11:23:31;23.20;43.80
38263;DHT22;24054;50.128;19.730;2023-02-08T11:26:17;23.30;43.70
38263;DHT22;24054;50.128;19.730;2023-02-08T11:28:54;23.30;43.70
38263;DHT22;24054;50.128;19.730;2023-02-08T11:31:24;23.40;43.60
38263;DHT22;24054;50.128;19.730;2023-02-08T11:33:59;23.40;43.50
38263;DHT22;24054;50.128;19.730;2023-02-08T11:36:27;23.50;43.60
38263;DHT22;24054;50.128;19.730;2023-02-08T11:38:56;23.50;43.50
38263;DHT22;24054;50.128;19.730;2023-02-08T11:41:23;23.50;43.50
38263;DHT22;24054;50.128;19.730;2023-02-08T11:43:57;23.60;43.50
38263;DHT22;24054;50.128;19.730;2023-02-08T11:46:26;23.70;43.40
38263;DHT22;24054;50.128;19.730;2023-02-08T11:48:55;23.70;43.30
38263;DHT22;24054;50.128;19.730;2023-02-08T11:51:25;23.80;43.30
38263;DHT22;24054;50.128;19.730;2023-02-08T11:53:55;23.80;43.20
38263;DHT22;24054;50.128;19.730;2023-02-08T11:56:24;23.80;43.20
38263;DHT22;24054;50.128;19.730;2023-02-08T11:59:01;23.80;43.20
38263;DHT22;24054;50.128;19.730;2023-02-08T12:01:30;23.90;43.20
38263;DHT22;24054;50.128;19.730;2023-02-08T12:04:00;23.90;43.20
38263;DHT22;24054;50.128;19.730;2023-02-08T12:09:36;23.90;43.10
38263;DHT22;24054;50.128;19.730;2023-02-08T12:12:17;23.90;43.20
38263;DHT22;24054;50.128;19.730;2023-02-08T12:14:54;23.80;43.10
38263;DHT22;24054;50.128;19.730;2023-02-08T12:17:56;23.80;43.10
38263;DHT22;24054;50.128;19.730;2023-02-08T12:20:38;23.80;43.20
38263;DHT22;24054;50.128;19.730;2023-02-08T12:23:23;23.80;43.20
38263;DHT22;24054;50.128;19.730;2023-02-08T12:26:00;23.90;43.30
38263;DHT22;24054;50.128;19.730;2023-02-08T12:28:37;23.90;43.30
38263;DHT22;24054;50.128;19.730;2023-02-08T12:31:14;24.00;43.40
38263;DHT22;24054;50.128;19.730;2023-02-08T12:33:49;24.00;43.30
38263;DHT22;24054;50.128;19.730;2023-02-08T12:36:49;24.10;43.30
38263;DHT22;24054;50.128;19.730;2023-02-08T12:39:48;24.10;43.30
38263;DHT22;24054;50.128;19.730;2023-02-08T12:42:48;24.20;43.20
38263;DHT22;24054;50.128;19.730;2023-02-08T12:45:56;24.20;43.20
38263;DHT22;24054;50.128;19.730;2023-02-08T12:48:55;24.20;43.20
38263;DHT22;24054;50.128;19.730;2023-02-08T12:51:35;24.20;43.10
38263;DHT22;24054;50.128;19.730;2023-02-08T12:54:06;24.20;43.00
38263;DHT22;24054;50.128;19.730;2023-02-08T12:56:38;24.20;43.00
38263;DHT22;24054;50.128;19.730;2023-02-08T12:59:15;24.20;43.00
38263;DHT22;24054;50.128;19.730;2023-02-08T13:01:47;24.20;42.90
38263;DHT22;24054;50.128;19.730;2023-02-08T13:04:22;24.20;42.90
38263;DHT22;24054;50.128;19.730;2023-02-08T13:06:56;24.10;42.90
38263;DHT22;24054;50.128;19.730;2023-02-08T13:09:33;24.10;43.00
38263;DHT22;24054;50.128;19.730;2023-02-08T13:12:06;24.10;43.10
38263;DHT22;24054;50.128;19.730;2023-02-08T13:14:42;24.00;43.70
38263;DHT22;24054;50.128;19.730;2023-02-08T13:17:15;24.00;42.90
38263;DHT22;24054;50.128;19.730;2023-02-08T13:19:51;23.90;42.90
38263;DHT22;24054;50.128;19.730;2023-02-08T13:22:20;23.90;42.90
38263;DHT22;24054;50.128;19.730;2023-02-08T13:24:48;23.80;43.00
38263;DHT22;24054;50.128;19.730;2023-02-08T13:27:17;23.80;43.00
38263;DHT22;24054;50.128;19.730;2023-02-08T13:29:47;23.80;43.20
38263;DHT22;24054;50.128;19.730;2023-02-08T13:32:20;23.70;43.10
38263;DHT22;24054;50.128;19.730;2023-02-08T13:34:55;23.70;43.10
38263;DHT22;24054;50.128;19.730;2023-02-08T13:37:24;23.60;43.20
38263;DHT22;24054;50.128;19.730;2023-02-08T13:39:58;23.60;43.20
38263;DHT22;24054;50.128;19.730;2023-02-08T13:42:29;23.60;43.20
38263;DHT22;24054;50.128;19.730;2023-02-08T13:45:01;23.60;43.20
38263;DHT22;24054;50.128;19.730;2023-02-08T13:47:31;23.50;43.10
38263;DHT22;24054;50.128;19.730;2023-02-08T13:50:02;23.50;43.20
38263;DHT22;24054;50.128;19.730;2023-02-08T13:52:49;23.50;43.30
38263;DHT22;24054;50.128;19.730;2023-02-08T13:55:39;23.50;43.30
38263;DHT22;24054;50.128;19.730;2023-02-08T13:58:25;23.40;43.30
38263;DHT22;24054;50.128;19.730;2023-02-08T14:01:15;23.40;43.30
38263;DHT22;24054;50.128;19.730;2023-02-08T14:03:42;23.40;43.30
38263;DHT22;24054;50.128;19.730;2023-02-08T14:06:17;23.40;43.40
38263;DHT22;24054;50.128;19.730;2023-02-08T14:08:51;23.40;43.30
38263;DHT22;24054;50.128;19.730;2023-02-08T14:11:29;23.40;43.20
38263;DHT22;24054;50.128;19.730;2023-02-08T14:14:01;23.30;43.20
38263;DHT22;24054;50.128;19.730;2023-02-08T14:16:32;23.30;43.10
38263;DHT22;24054;50.128;19.730;2023-02-08T14:19:02;23.30;43.20
38263;DHT22;24054;50.128;19.730;2023-02-08T14:21:33;23.30;43.20
38263;DHT22;24054;50.128;19.730;2023-02-08T14:24:04;23.20;43.10
38263;DHT22;24054;50.128;19.730;2023-02-08T14:26:34;23.20;43.10
38263;DHT22;24054;50.128;19.730;2023-02-08T14:29:04;23.20;43.40
38263;DHT22;24054;50.128;19.730;2023-02-08T14:31:42;23.30;43.30
38263;DHT22;24054;50.128;19.730;2023-02-08T14:34:22;23.20;43.20
38263;DHT22;24054;50.128;19.730;2023-02-08T14:37:00;23.10;43.30
38263;DHT22;24054;50.128;19.730;2023-02-08T14:39:29;23.20;43.70
38263;DHT22;24054;50.128;19.730;2023-02-08T14:41:58;23.10;44.00
38263;DHT22;24054;50.128;19.730;2023-02-08T14:44:58;23.10;44.10
38263;DHT22;24054;50.128;19.730;2023-02-08T14:47:51;23.10;44.10
38263;DHT22;24054;50.128;19.730;2023-02-08T14:50:31;23.10;44.20
38263;DHT22;24054;50.128;19.730;2023-02-08T14:53:03;23.10;44.20
38263;DHT22;24054;50.128;19.730;2023-02-08T14:55:38;23.10;44.20
38263;DHT22;24054;50.128;19.730;2023-02-08T14:58:07;23.00;44.10
38263;DHT22;24054;50.128;19.730;2023-02-08T15:00:38;23.00;44.10
38263;DHT22;24054;50.128;19.730;2023-02-08T15:03:13;23.00;44.00
38263;DHT22;24054;50.128;19.730;2023-02-08T15:05:56;23.00;44.00
38263;DHT22;24054;50.128;19.730;2023-02-08T15:08:26;22.90;43.90
38263;DHT22;24054;50.128;19.730;2023-02-08T15:10:54;22.90;43.90
38263;DHT22;24054;50.128;19.730;2023-02-08T15:13:23;22.90;43.90
38263;DHT22;24054;50.128;19.730;2023-02-08T15:15:52;22.90;43.90
38263;DHT22;24054;50.128;19.730;2023-02-08T15:18:27;22.80;43.80
38263;DHT22;24054;50.128;19.730;2023-02-08T15:21:01;22.80;43.80
38263;DHT22;24054;50.128;19.730;2023-02-08T15:23:29;22.80;43.80
38263;DHT22;24054;50.128;19.730;2023-02-08T15:25:58;22.80;43.60
38263;DHT22;24054;50.128;19.730;2023-02-08T15:28:27;22.80;43.40
38263;DHT22;24054;50.128;19.730;2023-02-08T15:30:57;22.70;43.90
38263;DHT22;24054;50.128;19.730;2023-02-08T15:33:26;22.70;43.10
38263;DHT22;24054;50.128;19.730;2023-02-08T15:35:58;22.70;43.00
38263;DHT22;24054;50.128;19.730;2023-02-08T15:38:26;22.60;42.90
38263;DHT22;24054;50.128;19.730;2023-02-08T15:41:05;22.60;42.90
38263;DHT22;24054;50.128;19.730;2023-02-08T15:43:33;22.60;42.90
38263;DHT22;24054;50.128;19.730;2023-02-08T15:46:04;22.60;42.90
38263;DHT22;24054;50.128;19.730;2023-02-08T15:48:34;22.50;42.80
38263;DHT22;24054;50.128;19.730;2023-02-08T15:51:02;22.50;42.80
38263;DHT22;24054;50.128;19.730;2023-02-08T15:53:33;22.50;42.80